Time;durP1;ratioP1;P1;durP2;ratioP2;P2;SDS_P1;SDS_P2;PMS_P1;PMS_P2;Temp;Humidity;BMP_temperature;BMP_pressure;BME280_temperature;BME280_humidity;BME280_pressure;Samples;Min_cycle;Max_cycle;Signal;HPM_P1;HPM_P2
2021/06/23 00:01:06;;;;;;;1.89;1.67;;;;;;;22.17;67.32;100399.27;;;;-58
2021/06/23 00:04:06;;;;;;;1.82;1.72;;;;;;;22.16;67.35;100396.47;;;;-58
2021/06/23 00:07:06;;;;;;;1.81;1.71;;;;;;;22.16;67.30;100403.75;;;;-58
2021/06/23 00:10:06;;;;;;;4.25;1.74;;;;;;;22.16;67.29;100407.34;;;;-58
2021/06/23 00:13:08;;;;;;;1.87;1.77;;;;;;;22.15;67.19;100409.39;;;;-58
2021/06/23 00:16:06;;;;;;;1.87;1.70;;;;;;;22.15;67.25;100405.73;;;;-58
2021/06/23 00:19:06;;;;;;;1.80;1.70;;;;;;;22.14;67.24;100402.45;;;;-58
2021/06/23 00:22:06;;;;;;;1.77;1.67;;;;;;;22.14;67.23;100399.19;;;;-58
2021/06/23 00:25:06;;;;;;;1.75;1.65;;;;;;;22.13;67.32;100402.63;;;;-58
2021/06/23 00:28:06;;;;;;;2.15;1.69;;;;;;;22.14;67.19;100401.23;;;;-58
2021/06/23 00:31:06;;;;;;;2.39;1.70;;;;;;;22.13;67.20;100409.08;;;;-59
2021/06/23 00:34:06;;;;;;;1.95;1.83;;;;;;;22.12;67.18;100420.27;;;;-60
2021/06/23 00:37:06;;;;;;;2.49;1.82;;;;;;;22.12;67.21;100422.56;;;;-60
2021/06/23 00:40:07;;;;;;;1.85;1.75;;;;;;;22.12;67.18;100423.52;;;;-58
2021/06/23 00:43:06;;;;;;;1.68;1.58;;;;;;;22.12;67.28;100424.50;;;;-58
2021/06/23 00:46:06;;;;;;;1.96;1.80;;;;;;;22.11;67.18;100427.95;;;;-58
2021/06/23 00:49:06;;;;;;;1.87;1.77;;;;;;;22.11;67.20;100426.97;;;;-53
2021/06/23 00:52:06;;;;;;;1.87;1.77;;;;;;;22.10;67.07;100427.22;;;;-53
2021/06/23 00:55:06;;;;;;;1.97;1.85;;;;;;;22.10;67.09;100429.73;;;;-53
2021/06/23 00:58:06;;;;;;;1.80;1.70;;;;;;;22.10;67.15;100431.44;;;;-53
2021/06/23 01:01:06;;;;;;;1.83;1.73;;;;;;;22.09;67.14;100436.84;;;;-53
2021/06/23 01:04:06;;;;;;;1.84;1.60;;;;;;;22.09;67.24;100440.27;;;;-53
2021/06/23 01:07:06;;;;;;;1.81;1.70;;;;;;;22.08;67.16;100439.96;;;;-53
2021/06/23 01:10:06;;;;;;;1.87;1.77;;;;;;;22.08;67.15;100442.08;;;;-53
2021/06/23 01:13:06;;;;;;;1.80;1.70;;;;;;;22.08;67.15;100443.31;;;;-53
2021/06/23 01:16:06;;;;;;;1.83;1.73;;;;;;;22.08;67.09;100442.64;;;;-53
2021/06/23 01:19:06;;;;;;;2.13;1.75;;;;;;;22.07;67.12;100445.91;;;;-53
2021/06/23 01:22:06;;;;;;;1.85;1.75;;;;;;;22.08;67.11;100451.94;;;;-54
2021/06/23 01:25:08;;;;;;;1.86;1.76;;;;;;;22.07;67.18;100445.51;;;;-53
2021/06/23 01:28:06;;;;;;;1.96;1.68;;;;;;;22.07;67.08;100440.37;;;;-53
2021/06/23 01:31:06;;;;;;;1.81;1.71;;;;;;;22.06;67.15;100440.80;;;;-53
2021/06/23 01:34:06;;;;;;;1.89;1.77;;;;;;;22.06;67.10;100438.83;;;;-53
2021/06/23 01:37:06;;;;;;;1.75;1.65;;;;;;;22.05;67.17;100438.00;;;;-53
2021/06/23 01:40:06;;;;;;;1.89;1.79;;;;;;;22.06;67.16;100439.00;;;;-53
2021/06/23 01:43:06;;;;;;;1.76;1.66;;;;;;;22.05;67.09;100441.44;;;;-53
2021/06/23 01:46:06;;;;;;;1.79;1.69;;;;;;;22.05;67.07;100437.52;;;;-53
2021/06/23 01:49:06;;;;;;;1.85;1.75;;;;;;;22.05;67.08;100433.53;;;;-53
2021/06/23 01:52:06;;;;;;;1.80;1.69;;;;;;;22.04;67.08;100435.74;;;;-53
2021/06/23 01:55:06;;;;;;;1.95;1.74;;;;;;;22.04;67.04;100438.09;;;;-53
2021/06/23 01:58:07;;;;;;;1.85;1.70;;;;;;;22.04;67.03;100437.54;;;;-53
2021/06/23 02:01:06;;;;;;;1.80;1.70;;;;;;;22.03;67.07;100431.80;;;;-53
2021/06/23 02:04:07;;;;;;;1.91;1.78;;;;;;;22.03;67.01;100420.30;;;;-53
2021/06/23 02:07:06;;;;;;;2.29;1.73;;;;;;;22.03;67.09;100423.41;;;;-53
2021/06/23 02:10:06;;;;;;;1.93;1.83;;;;;;;22.03;66.98;100419.33;;;;-53
2021/06/23 02:13:06;;;;;;;1.87;1.77;;;;;;;22.02;67.08;100417.22;;;;-53
2021/06/23 02:17:08;;;;;;;2.37;1.77;;;;;;;22.02;67.09;100416.98;;;;-53
2021/06/23 02:20:06;;;;;;;1.90;1.80;;;;;;;22.01;66.96;100418.11;;;;-53
2021/06/23 02:23:06;;;;;;;1.79;1.65;;;;;;;22.02;66.96;100421.13;;;;-53
2021/06/23 02:26:06;;;;;;;1.96;1.65;;;;;;;22.01;67.00;100421.05;;;;-53
2021/06/23 02:29:06;;;;;;;1.85;1.75;;;;;;;22.01;67.02;100424.97;;;;-53
2021/06/23 02:32:06;;;;;;;1.71;1.61;;;;;;;22.01;67.00;100425.70;;;;-53
2021/06/23 02:35:06;;;;;;;1.77;1.67;;;;;;;22.00;67.12;100425.71;;;;-53
2021/06/23 02:38:06;;;;;;;1.79;1.69;;;;;;;22.01;67.07;100428.31;;;;-53
2021/06/23 02:41:06;;;;;;;1.81;1.69;;;;;;;22.00;67.01;100420.41;;;;-53
2021/06/23 02:44:06;;;;;;;1.72;1.62;;;;;;;22.00;66.89;100419.51;;;;-53
2021/06/23 02:47:06;;;;;;;1.83;1.73;;;;;;;22.00;67.14;100420.48;;;;-53
2021/06/23 02:50:06;;;;;;;1.80;1.70;;;;;;;21.99;67.00;100423.02;;;;-53
2021/06/23 02:53:06;;;;;;;1.79;1.69;;;;;;;21.99;67.02;100423.25;;;;-53
2021/06/23 02:56:06;;;;;;;2.05;1.87;;;;;;;21.99;66.97;100418.44;;;;-53
2021/06/23 02:59:06;;;;;;;1.87;1.77;;;;;;;21.99;67.05;100421.55;;;;-53
2021/06/23 03:02:06;;;;;;;1.90;1.80;;;;;;;21.99;67.03;100442.45;;;;-53
2021/06/23 03:05:06;;;;;;;1.91;1.81;;;;;;;21.99;66.97;100444.73;;;;-53
2021/06/23 03:08:06;;;;;;;2.06;1.90;;;;;;;21.99;66.95;100450.61;;;;-53
2021/06/23 03:11:06;;;;;;;1.91;1.81;;;;;;;21.98;67.08;100445.06;;;;-53
2021/06/23 03:14:06;;;;;;;2.23;1.91;;;;;;;21.98;66.97;100445.23;;;;-53
2021/06/23 03:17:06;;;;;;;1.81;1.63;;;;;;;21.97;66.96;100451.50;;;;-54
2021/06/23 03:20:06;;;;;;;1.90;1.80;;;;;;;21.97;66.97;100455.42;;;;-53
2021/06/23 03:23:06;;;;;;;1.90;1.79;;;;;;;21.97;67.11;100454.19;;;;-53
2021/06/23 03:26:06;;;;;;;2.02;1.89;;;;;;;21.97;67.13;100461.22;;;;-53
2021/06/23 03:29:06;;;;;;;1.89;1.79;;;;;;;21.97;67.08;100465.47;;;;-53
2021/06/23 03:32:06;;;;;;;2.03;1.83;;;;;;;21.96;67.08;100470.13;;;;-53
2021/06/23 03:35:06;;;;;;;2.09;1.83;;;;;;;21.96;66.91;100476.49;;;;-53
2021/06/23 03:38:06;;;;;;;1.98;1.88;;;;;;;21.96;66.97;100479.27;;;;-53
2021/06/23 03:41:06;;;;;;;1.83;1.72;;;;;;;21.95;67.03;100478.43;;;;-52
2021/06/23 03:44:06;;;;;;;1.83;1.73;;;;;;;21.95;66.94;100470.94;;;;-53
2021/06/23 03:47:06;;;;;;;1.89;1.79;;;;;;;21.95;67.08;100465.62;;;;-53
2021/06/23 03:50:06;;;;;;;1.96;1.83;;;;;;;21.95;66.97;100466.69;;;;-53
2021/06/23 03:53:06;;;;;;;2.11;1.83;;;;;;;21.95;67.05;100473.38;;;;-53
2021/06/23 03:56:06;;;;;;;1.94;1.84;;;;;;;21.94;67.20;100476.81;;;;-53
2021/06/23 03:59:06;;;;;;;1.91;1.81;;;;;;;21.94;67.04;100474.30;;;;-53
2021/06/23 04:02:06;;;;;;;1.84;1.67;;;;;;;21.93;67.02;100474.52;;;;-53
2021/06/23 04:05:07;;;;;;;2.01;1.91;;;;;;;21.94;67.19;100476.91;;;;-53
2021/06/23 04:08:06;;;;;;;1.80;1.70;;;;;;;21.93;67.07;100481.31;;;;-53
2021/06/23 04:11:06;;;;;;;2.06;1.87;;;;;;;21.92;67.02;100486.78;;;;-53
2021/06/23 04:14:06;;;;;;;1.89;1.79;;;;;;;21.92;67.02;100484.66;;;;-53
2021/06/23 04:17:06;;;;;;;1.80;1.70;;;;;;;21.93;67.07;100482.45;;;;-53
2021/06/23 04:20:06;;;;;;;1.87;1.77;;;;;;;21.92;67.05;100478.80;;;;-53
2021/06/23 04:23:06;;;;;;;1.86;1.76;;;;;;;21.92;67.03;100474.14;;;;-52
2021/06/23 04:26:06;;;;;;;1.79;1.69;;;;;;;21.91;67.11;100458.53;;;;-53
2021/06/23 04:29:06;;;;;;;1.95;1.84;;;;;;;21.92;67.16;100455.38;;;;-53
2021/06/23 04:32:06;;;;;;;1.89;1.79;;;;;;;21.91;67.07;100456.50;;;;-53
2021/06/23 04:35:06;;;;;;;2.38;1.98;;;;;;;21.91;67.17;100469.63;;;;-52
2021/06/23 04:38:06;;;;;;;1.92;1.82;;;;;;;21.90;67.39;100474.71;;;;-54
2021/06/23 04:41:06;;;;;;;7.35;4.74;;;;;;;21.81;68.28;100484.55;;;;-53
2021/06/23 04:44:06;;;;;;;4.56;4.04;;;;;;;21.81;68.33;100490.82;;;;-54
2021/06/23 04:47:06;;;;;;;6.69;4.73;;;;;;;21.78;68.42;100493.83;;;;-54
2021/06/23 04:50:06;;;;;;;9.04;4.94;;;;;;;21.78;68.52;100502.48;;;;-54
2021/06/23 04:53:06;;;;;;;8.01;5.33;;;;;;;21.76;68.66;100509.50;;;;-54
2021/06/23 04:56:06;;;;;;;5.57;4.72;;;;;;;21.76;68.73;100500.45;;;;-54
2021/06/23 04:59:06;;;;;;;7.79;5.15;;;;;;;21.75;68.89;100484.80;;;;-54
2021/06/23 05:02:06;;;;;;;5.88;5.32;;;;;;;21.72;69.20;100485.78;;;;-53
2021/06/23 05:05:06;;;;;;;6.77;5.83;;;;;;;21.72;68.96;100505.19;;;;-54
2021/06/23 05:08:06;;;;;;;6.07;5.41;;;;;;;21.72;69.08;100524.61;;;;-53
2021/06/23 05:11:06;;;;;;;6.38;5.62;;;;;;;21.71;69.03;100544.61;;;;-55
2021/06/23 05:14:08;;;;;;;7.72;5.86;;;;;;;21.68;69.16;100543.70;;;;-55
2021/06/23 05:17:06;;;;;;;6.41;5.57;;;;;;;21.67;69.58;100530.41;;;;-52
2021/06/23 05:20:06;;;;;;;6.25;5.62;;;;;;;21.69;69.46;100515.31;;;;-52
2021/06/23 05:23:06;;;;;;;7.92;5.63;;;;;;;21.72;69.31;100517.42;;;;-57
2021/06/23 05:26:06;;;;;;;7.91;5.37;;;;;;;21.73;69.53;100527.79;;;;-54
2021/06/23 05:29:06;;;;;;;6.38;5.71;;;;;;;21.76;69.85;100521.09;;;;-53
2021/06/23 05:32:06;;;;;;;6.55;5.17;;;;;;;21.77;69.40;100508.76;;;;-54
2021/06/23 05:35:06;;;;;;;7.56;5.10;;;;;;;21.78;69.36;100507.47;;;;-53
2021/06/23 05:38:06;;;;;;;5.49;4.85;;;;;;;21.79;69.12;100502.98;;;;-54
2021/06/23 05:41:06;;;;;;;5.33;4.83;;;;;;;21.80;69.11;100501.98;;;;-53
2021/06/23 05:44:06;;;;;;;6.56;4.69;;;;;;;21.81;68.88;100507.87;;;;-54
2021/06/23 05:47:06;;;;;;;5.05;4.27;;;;;;;21.83;68.88;100512.17;;;;-53
2021/06/23 05:50:06;;;;;;;6.29;4.45;;;;;;;21.83;68.79;100514.72;;;;-53
2021/06/23 05:53:06;;;;;;;5.67;4.50;;;;;;;21.84;68.71;100513.81;;;;-54
2021/06/23 05:56:06;;;;;;;4.90;4.25;;;;;;;21.85;68.65;100514.86;;;;-53
2021/06/23 05:59:06;;;;;;;9.09;4.52;;;;;;;21.86;68.68;100522.78;;;;-60
2021/06/23 06:02:06;;;;;;;5.86;4.15;;;;;;;21.87;68.62;100526.28;;;;-57
2021/06/23 06:05:06;;;;;;;6.11;4.28;;;;;;;21.87;68.85;100530.88;;;;-61
2021/06/23 06:08:06;;;;;;;6.87;4.50;;;;;;;21.87;68.96;100532.09;;;;-61
2021/06/23 06:11:06;;;;;;;5.43;4.21;;;;;;;21.88;68.66;100539.66;;;;-54
2021/06/23 06:14:06;;;;;;;6.23;4.44;;;;;;;21.88;68.75;100546.11;;;;-54
2021/06/23 06:17:06;;;;;;;5.45;4.21;;;;;;;21.89;68.61;100553.44;;;;-55
2021/06/23 06:20:06;;;;;;;7.13;3.99;;;;;;;21.89;68.52;100551.50;;;;-54
2021/06/23 06:23:06;;;;;;;6.63;3.87;;;;;;;21.89;68.37;100554.33;;;;-54
2021/06/23 06:26:06;;;;;;;5.89;4.12;;;;;;;21.89;68.57;100564.23;;;;-51
2021/06/23 06:29:07;;;;;;;5.30;4.17;;;;;;;21.92;68.53;100568.95;;;;-51
2021/06/23 06:32:06;;;;;;;4.35;3.95;;;;;;;21.93;68.60;100568.62;;;;-54
2021/06/23 06:35:06;;;;;;;7.39;4.23;;;;;;;21.93;68.64;100570.16;;;;-52
2021/06/23 06:38:06;;;;;;;6.49;3.84;;;;;;;21.95;68.53;100576.52;;;;-53
2021/06/23 06:41:06;;;;;;;7.27;4.23;;;;;;;21.95;68.81;100580.75;;;;-52
2021/06/23 06:44:06;;;;;;;5.05;4.31;;;;;;;21.96;68.81;100583.38;;;;-49
2021/06/23 06:47:06;;;;;;;7.27;4.11;;;;;;;21.98;68.87;100584.53;;;;-52
2021/06/23 06:50:06;;;;;;;5.16;4.27;;;;;;;21.99;68.98;100592.18;;;;-54
2021/06/23 06:53:07;;;;;;;6.26;4.21;;;;;;;21.99;68.97;100599.77;;;;-54
2021/06/23 06:56:06;;;;;;;9.09;4.35;;;;;;;22.02;69.16;100599.46;;;;-56
2021/06/23 06:59:06;;;;;;;4.98;4.49;;;;;;;22.03;69.06;100591.04;;;;-53
2021/06/23 07:02:06;;;;;;;5.20;4.31;;;;;;;22.03;69.12;100591.27;;;;-51
2021/06/23 07:05:06;;;;;;;5.73;4.49;;;;;;;22.05;69.06;100596.98;;;;-53
2021/06/23 07:08:06;;;;;;;14.97;10.85;;;;;;;21.96;71.45;100597.67;;;;-64
2021/06/23 07:11:06;;;;;;;16.09;10.47;;;;;;;21.85;71.09;100596.20;;;;-52
2021/06/23 07:14:06;;;;;;;14.77;9.20;;;;;;;21.86;71.12;100593.28;;;;-53
2021/06/23 07:17:06;;;;;;;14.51;9.02;;;;;;;21.90;70.82;100594.73;;;;-53
2021/06/23 07:20:06;;;;;;;11.71;8.50;;;;;;;21.93;70.80;100593.09;;;;-50
2021/06/23 07:23:06;;;;;;;9.52;7.90;;;;;;;21.96;70.50;100596.61;;;;-53
2021/06/23 07:26:06;;;;;;;20.03;7.88;;;;;;;21.98;70.58;100600.35;;;;-53
2021/06/23 07:29:06;;;;;;;11.71;7.27;;;;;;;22.01;70.27;100599.28;;;;-53
2021/06/23 07:32:07;;;;;;;8.35;6.74;;;;;;;22.03;70.08;100599.28;;;;-51
2021/06/23 07:38:08;;;;;;;9.18;6.67;;;;;;;22.04;69.72;100586.78;;;;-51
2021/06/23 07:41:06;;;;;;;8.54;6.49;;;;;;;22.04;69.62;100586.62;;;;-51
2021/06/23 07:44:07;;;;;;;8.24;6.44;;;;;;;22.03;69.53;100588.59;;;;-51
2021/06/23 07:47:08;;;;;;;7.31;6.02;;;;;;;22.04;69.73;100584.16;;;;-51
2021/06/23 07:50:08;;;;;;;8.15;6.15;;;;;;;22.03;69.35;100584.91;;;;-51
2021/06/23 07:53:10;;;;;;;6.44;5.77;;;;;;;22.03;69.34;100582.78;;;;-51
2021/06/23 07:56:10;;;;;;;8.51;6.05;;;;;;;22.04;69.24;100585.31;;;;-51
2021/06/23 08:02:50;;;;;;;6.28;5.52;;;;;;;22.03;69.17;100584.74;;;;-51
2021/06/23 08:08:23;;;;;;;7.05;5.43;;;;;;;22.04;69.04;100594.56;;;;-57
2021/06/23 08:11:16;;;;;;;6.60;5.36;;;;;;;22.05;68.98;100606.55;;;;-57
2021/06/23 08:14:06;;;;;;;5.99;5.41;;;;;;;22.04;68.85;100608.84;;;;-57
2021/06/23 08:17:06;;;;;;;5.87;5.21;;;;;;;22.04;68.77;100610.38;;;;-58
2021/06/23 08:20:06;;;;;;;5.77;5.25;;;;;;;22.04;68.87;100605.57;;;;-58
2021/06/23 08:23:06;;;;;;;8.27;5.11;;;;;;;22.05;68.79;100604.41;;;;-56
2021/06/23 08:26:06;;;;;;;7.81;5.61;;;;;;;22.06;68.86;100601.48;;;;-53
2021/06/23 08:29:06;;;;;;;6.85;5.47;;;;;;;22.06;69.87;100599.11;;;;-59
2021/06/23 08:32:06;;;;;;;9.10;6.11;;;;;;;22.08;69.67;100601.62;;;;-58
2021/06/23 08:35:06;;;;;;;7.25;5.13;;;;;;;22.08;69.57;100595.61;;;;-52
2021/06/23 08:38:06;;;;;;;7.49;5.32;;;;;;;22.09;69.72;100597.80;;;;-51
2021/06/23 08:41:06;;;;;;;7.22;5.49;;;;;;;22.09;69.94;100597.46;;;;-52
2021/06/23 08:44:06;;;;;;;7.07;5.66;;;;;;;22.10;69.93;100595.93;;;;-57
2021/06/23 08:47:06;;;;;;;5.86;5.11;;;;;;;22.11;69.63;100603.02;;;;-59
2021/06/23 08:50:06;;;;;;;6.88;5.00;;;;;;;22.12;69.72;100598.44;;;;-56
2021/06/23 08:53:07;;;;;;;8.21;5.54;;;;;;;22.12;70.07;100596.23;;;;-58
2021/06/23 08:56:07;;;;;;;7.05;5.04;;;;;;;22.13;69.85;100595.67;;;;-52
2021/06/23 08:59:06;;;;;;;7.31;5.13;;;;;;;22.13;69.85;100597.88;;;;-53
2021/06/23 09:02:06;;;;;;;5.77;5.19;;;;;;;22.14;69.76;100597.53;;;;-55
2021/06/23 09:05:06;;;;;;;5.41;4.69;;;;;;;22.15;69.65;100596.41;;;;-54
2021/06/23 09:08:06;;;;;;;6.32;5.11;;;;;;;22.16;69.69;100585.37;;;;-58
2021/06/23 09:11:06;;;;;;;6.76;4.91;;;;;;;22.17;69.58;100590.68;;;;-56
2021/06/23 09:14:06;;;;;;;6.33;4.84;;;;;;;22.18;69.47;100592.70;;;;-57
2021/06/23 09:17:07;;;;;;;6.20;4.87;;;;;;;22.18;69.45;100590.58;;;;-54
2021/06/23 09:20:06;;;;;;;5.71;4.81;;;;;;;22.19;69.54;100590.42;;;;-54
2021/06/23 09:23:07;;;;;;;5.39;4.56;;;;;;;22.20;69.50;100591.55;;;;-54
2021/06/23 09:26:06;;;;;;;5.30;4.54;;;;;;;22.20;69.45;100587.91;;;;-53
2021/06/23 09:29:06;;;;;;;5.25;4.53;;;;;;;22.21;69.44;100587.73;;;;-59
2021/06/23 09:32:06;;;;;;;4.75;4.29;;;;;;;22.22;69.32;100581.34;;;;-53
2021/06/23 09:35:06;;;;;;;9.24;4.68;;;;;;;22.23;69.39;100577.71;;;;-56
2021/06/23 09:38:06;;;;;;;9.25;4.41;;;;;;;22.23;69.38;100574.45;;;;-58
2021/06/23 09:41:06;;;;;;;5.65;4.44;;;;;;;22.24;69.24;100575.91;;;;-57
2021/06/23 09:44:06;;;;;;;5.03;4.30;;;;;;;22.25;69.33;100572.16;;;;-55
2021/06/23 09:47:06;;;;;;;4.95;4.21;;;;;;;22.24;69.24;100573.37;;;;-58
2021/06/23 09:50:06;;;;;;;5.39;4.45;;;;;;;22.26;69.15;100576.63;;;;-53
2021/06/23 09:53:08;;;;;;;6.45;4.25;;;;;;;22.28;69.26;100575.16;;;;-53
2021/06/23 09:56:06;;;;;;;5.67;4.69;;;;;;;22.27;69.23;100571.49;;;;-53
2021/06/23 09:59:07;;;;;;;4.66;4.18;;;;;;;22.28;69.15;100566.09;;;;-53
2021/06/23 10:02:06;;;;;;;5.55;4.28;;;;;;;22.29;69.08;100563.64;;;;-56
2021/06/23 10:05:06;;;;;;;4.73;4.25;;;;;;;22.30;69.08;100560.78;;;;-56
2021/06/23 10:08:06;;;;;;;4.43;4.05;;;;;;;22.32;68.78;100560.70;;;;-52
2021/06/23 10:11:06;;;;;;;5.21;4.07;;;;;;;22.29;69.03;100563.41;;;;-51
2021/06/23 10:14:06;;;;;;;4.55;4.09;;;;;;;22.30;68.86;100562.25;;;;-51
2021/06/23 10:17:06;;;;;;;4.88;4.30;;;;;;;22.30;68.94;100559.55;;;;-52
2021/06/23 10:20:06;;;;;;;7.43;4.11;;;;;;;22.31;68.93;100555.97;;;;-53
2021/06/23 10:23:06;;;;;;;4.65;4.07;;;;;;;22.31;68.98;100548.87;;;;-55
2021/06/23 10:26:06;;;;;;;16.30;4.48;;;;;;;22.31;68.94;100547.16;;;;-56
2021/06/23 10:29:06;;;;;;;4.33;3.92;;;;;;;22.32;68.91;100539.38;;;;-52
2021/06/23 10:32:06;;;;;;;5.59;4.14;;;;;;;22.32;68.77;100540.19;;;;-57
2021/06/23 10:35:06;;;;;;;7.36;4.21;;;;;;;22.33;68.85;100539.94;;;;-57
2021/06/23 10:38:06;;;;;;;6.67;4.12;;;;;;;22.32;68.70;100534.41;;;;-58
2021/06/23 10:41:06;;;;;;;8.41;4.36;;;;;;;22.30;68.75;100531.05;;;;-54
2021/06/23 10:44:06;;;;;;;4.83;3.80;;;;;;;22.30;68.66;100528.36;;;;-53
2021/06/23 10:47:08;;;;;;;4.17;3.77;;;;;;;22.30;68.60;100524.53;;;;-58
2021/06/23 10:50:06;;;;;;;7.37;4.06;;;;;;;22.29;68.63;100524.55;;;;-57
2021/06/23 10:53:06;;;;;;;4.66;3.85;;;;;;;22.28;68.56;100524.45;;;;-59
2021/06/23 10:56:06;;;;;;;4.45;4.05;;;;;;;22.28;68.50;100524.28;;;;-58
2021/06/23 10:59:06;;;;;;;5.30;3.80;;;;;;;22.27;68.49;100526.27;;;;-59
2021/06/23 11:02:06;;;;;;;4.65;3.66;;;;;;;22.27;68.48;100525.37;;;;-57
2021/06/23 11:05:06;;;;;;;5.84;3.83;;;;;;;22.26;68.41;100522.27;;;;-57
2021/06/23 11:08:06;;;;;;;6.05;3.82;;;;;;;22.26;68.38;100521.27;;;;-57
2021/06/23 11:11:06;;;;;;;5.40;3.75;;;;;;;22.25;68.30;100520.48;;;;-57
2021/06/23 11:14:06;;;;;;;4.31;3.85;;;;;;;22.25;68.26;100517.79;;;;-57
2021/06/23 11:17:06;;;;;;;5.07;3.76;;;;;;;22.25;68.26;100520.00;;;;-57
2021/06/23 11:20:06;;;;;;;4.17;3.69;;;;;;;22.25;68.17;100518.69;;;;-57
2021/06/23 11:23:07;;;;;;;4.06;3.59;;;;;;;22.24;68.14;100522.35;;;;-57
2021/06/23 11:26:06;;;;;;;4.03;3.54;;;;;;;22.24;68.23;100530.34;;;;-57
2021/06/23 11:31:11;;;;;;;4.75;3.39;;;;;;;22.24;68.14;100536.80;;;;-57
2021/06/23 11:34:06;;;;;;;3.97;3.43;;;;;;;22.23;68.17;100533.39;;;;-57
2021/06/23 11:37:06;;;;;;;4.78;3.58;;;;;;;22.23;68.10;100537.80;;;;-53
2021/06/23 11:40:06;;;;;;;5.18;3.61;;;;;;;22.23;68.02;100538.34;;;;-53
2021/06/23 11:43:06;;;;;;;4.71;3.55;;;;;;;22.23;68.02;100542.09;;;;-53
2021/06/23 11:46:06;;;;;;;3.83;3.47;;;;;;;22.22;68.01;100545.27;;;;-53
2021/06/23 11:49:06;;;;;;;3.67;3.37;;;;;;;22.22;68.01;100541.67;;;;-53
2021/06/23 11:52:06;;;;;;;4.03;3.62;;;;;;;22.22;67.98;100539.72;;;;-53
2021/06/23 11:55:06;;;;;;;3.62;3.31;;;;;;;22.22;67.96;100534.40;;;;-51
2021/06/23 11:58:06;;;;;;;4.07;3.67;;;;;;;22.24;67.96;100531.50;;;;-51
2021/06/23 12:01:06;;;;;;;3.95;3.52;;;;;;;22.25;67.96;100525.22;;;;-50
2021/06/23 12:04:06;;;;;;;5.82;3.70;;;;;;;22.26;67.96;100515.97;;;;-54
2021/06/23 12:07:06;;;;;;;4.79;3.44;;;;;;;22.28;68.12;100506.98;;;;-60
2021/06/23 12:10:06;;;;;;;5.05;3.43;;;;;;;22.28;68.19;100501.36;;;;-50
2021/06/23 12:13:06;;;;;;;4.81;3.27;;;;;;;22.29;68.18;100503.88;;;;-58
2021/06/23 12:16:08;;;;;;;4.87;3.43;;;;;;;22.30;68.27;100503.55;;;;-58
2021/06/23 12:19:06;;;;;;;6.49;3.30;;;;;;;22.33;68.52;100501.89;;;;-58
2021/06/23 12:22:08;;;;;;;6.17;3.26;;;;;;;22.33;68.33;100498.22;;;;-60
2021/06/23 12:25:06;;;;;;;7.49;3.31;;;;;;;22.34;68.27;100494.30;;;;-50
2021/06/23 12:28:06;;;;;;;4.10;3.34;;;;;;;22.34;68.31;100498.47;;;;-47
2021/06/23 12:31:06;;;;;;;4.25;3.42;;;;;;;22.35;68.36;100501.06;;;;-61
2021/06/23 12:34:08;;;;;;;3.47;3.17;;;;;;;22.34;68.32;100500.99;;;;-54
2021/06/23 12:37:06;;;;;;;3.77;3.27;;;;;;;22.36;68.28;100499.84;;;;-56
2021/06/23 12:40:06;;;;;;;4.66;3.10;;;;;;;22.36;68.29;100496.08;;;;-55
2021/06/23 12:43:10;;;;;;;5.23;3.37;;;;;;;22.37;68.35;100486.05;;;;-57
2021/06/23 12:46:07;;;;;;;4.31;3.25;;;;;;;22.37;68.27;100487.11;;;;-56
2021/06/23 12:49:06;;;;;;;4.45;3.26;;;;;;;22.38;68.19;100491.77;;;;-58
2021/06/23 12:52:06;;;;;;;4.57;3.08;;;;;;;22.38;68.12;100493.63;;;;-56
2021/06/23 12:55:06;;;;;;;6.61;3.23;;;;;;;22.38;68.19;100495.19;;;;-58
2021/06/23 12:58:06;;;;;;;3.91;3.16;;;;;;;22.37;68.24;100491.36;;;;-49
2021/06/23 13:01:06;;;;;;;3.62;3.18;;;;;;;22.38;68.22;100485.45;;;;-47
2021/06/23 13:04:06;;;;;;;3.96;3.31;;;;;;;22.39;68.23;100482.61;;;;-54
2021/06/23 13:07:06;;;;;;;3.68;3.26;;;;;;;22.39;68.27;100475.27;;;;-51
2021/06/23 13:10:07;;;;;;;3.97;3.29;;;;;;;22.40;68.21;100474.02;;;;-58
2021/06/23 13:13:06;;;;;;;4.51;3.12;;;;;;;22.40;68.30;100476.88;;;;-52
2021/06/23 13:16:06;;;;;;;4.32;3.19;;;;;;;22.41;68.33;100477.69;;;;-56
2021/06/23 13:19:06;;;;;;;3.53;3.00;;;;;;;22.41;68.34;100478.20;;;;-49
2021/06/23 13:22:06;;;;;;;5.41;3.10;;;;;;;22.42;68.38;100483.48;;;;-49
2021/06/23 13:25:06;;;;;;;3.85;3.14;;;;;;;22.43;68.31;100486.98;;;;-53
2021/06/23 13:28:06;;;;;;;4.51;3.35;;;;;;;22.42;68.33;100484.05;;;;-55
2021/06/23 13:31:06;;;;;;;6.35;3.37;;;;;;;22.43;68.35;100482.16;;;;-50
2021/06/23 13:34:09;;;;;;;6.50;3.14;;;;;;;22.43;68.30;100476.53;;;;-49
2021/06/23 13:37:06;;;;;;;7.16;3.13;;;;;;;22.44;68.29;100471.72;;;;-54
2021/06/23 13:40:06;;;;;;;4.08;2.95;;;;;;;22.44;68.28;100468.30;;;;-57
2021/06/23 13:43:06;;;;;;;5.07;3.23;;;;;;;22.45;68.30;100459.86;;;;-50
2021/06/23 13:46:07;;;;;;;4.89;3.23;;;;;;;22.46;68.19;100456.69;;;;-59
2021/06/23 13:49:06;;;;;;;3.45;3.15;;;;;;;22.47;68.16;100455.52;;;;-57
2021/06/23 13:52:06;;;;;;;5.67;3.21;;;;;;;22.45;68.26;100457.48;;;;-61
2021/06/23 13:55:06;;;;;;;6.45;3.17;;;;;;;22.45;68.22;100464.45;;;;-58
2021/06/23 13:58:06;;;;;;;4.53;3.18;;;;;;;22.45;68.18;100461.34;;;;-51
2021/06/23 14:01:06;;;;;;;4.06;3.09;;;;;;;22.47;68.27;100456.59;;;;-50
2021/06/23 14:04:06;;;;;;;5.55;3.01;;;;;;;22.47;68.21;100451.53;;;;-49
2021/06/23 14:07:06;;;;;;;3.99;3.01;;;;;;;22.48;68.23;100445.80;;;;-52
2021/06/23 14:10:07;;;;;;;5.01;3.30;;;;;;;22.48;68.18;100441.39;;;;-58
2021/06/23 14:13:06;;;;;;;3.37;2.97;;;;;;;22.50;68.20;100442.30;;;;-56
2021/06/23 14:16:06;;;;;;;3.29;2.99;;;;;;;22.50;68.15;100438.92;;;;-61
2021/06/23 14:19:07;;;;;;;6.19;2.87;;;;;;;22.51;68.19;100430.09;;;;-54
2021/06/23 14:22:06;;;;;;;7.30;3.15;;;;;;;22.51;68.12;100432.63;;;;-60
2021/06/23 14:25:06;;;;;;;4.36;3.05;;;;;;;22.51;68.09;100441.77;;;;-63
2021/06/23 14:28:06;;;;;;;4.81;2.94;;;;;;;22.51;68.01;100445.36;;;;-62
2021/06/23 14:31:06;;;;;;;4.57;2.88;;;;;;;22.51;68.09;100438.59;;;;-60
2021/06/23 14:34:08;;;;;;;4.05;2.88;;;;;;;22.52;68.12;100432.72;;;;-54
2021/06/23 14:37:06;;;;;;;4.68;2.94;;;;;;;22.51;67.93;100430.42;;;;-52
2021/06/23 14:40:06;;;;;;;7.97;3.03;;;;;;;22.50;68.07;100433.14;;;;-52
2021/06/23 14:43:06;;;;;;;3.78;2.85;;;;;;;22.49;67.95;100429.53;;;;-53
2021/06/23 14:46:07;;;;;;;3.88;2.80;;;;;;;22.49;67.96;100435.09;;;;-60
2021/06/23 14:49:06;;;;;;;6.29;2.80;;;;;;;22.47;67.90;100430.63;;;;-60
2021/06/23 14:52:06;;;;;;;3.14;2.77;;;;;;;22.47;67.84;100428.48;;;;-59
2021/06/23 14:55:06;;;;;;;3.72;2.77;;;;;;;22.47;67.88;100420.41;;;;-60
2021/06/23 14:58:06;;;;;;;3.90;2.92;;;;;;;22.46;67.85;100418.31;;;;-59
2021/06/23 15:01:06;;;;;;;3.09;2.75;;;;;;;22.44;67.81;100422.23;;;;-51
2021/06/23 15:04:06;;;;;;;3.41;2.81;;;;;;;22.44;67.75;100418.56;;;;-51
2021/06/23 15:07:06;;;;;;;2.87;2.66;;;;;;;22.44;67.72;100406.89;;;;-51
2021/06/23 15:10:08;;;;;;;5.17;2.61;;;;;;;22.42;67.72;100411.38;;;;-59
2021/06/23 15:13:06;;;;;;;6.08;2.79;;;;;;;22.43;67.75;100411.44;;;;-56
2021/06/23 15:16:06;;;;;;;3.01;2.59;;;;;;;22.44;67.67;100395.12;;;;-58
2021/06/23 15:19:06;;;;;;;4.13;2.91;;;;;;;22.46;67.74;100395.11;;;;-59
2021/06/23 15:22:06;;;;;;;4.13;2.72;;;;;;;22.47;67.90;100390.36;;;;-56
2021/06/23 15:25:06;;;;;;;3.05;2.70;;;;;;;22.47;67.84;100390.84;;;;-57
2021/06/23 15:28:06;;;;;;;3.05;2.78;;;;;;;22.48;67.86;100384.64;;;;-60
2021/06/23 15:31:06;;;;;;;3.87;2.91;;;;;;;22.48;67.93;100390.59;;;;-52
2021/06/23 15:34:06;;;;;;;3.95;2.83;;;;;;;22.49;67.99;100391.65;;;;-48
2021/06/23 15:37:06;;;;;;;3.37;2.81;;;;;;;22.50;67.98;100390.35;;;;-47
2021/06/23 15:40:06;;;;;;;5.32;2.81;;;;;;;22.50;68.01;100386.91;;;;-50
2021/06/23 15:43:06;;;;;;;6.67;2.79;;;;;;;22.49;68.01;100384.70;;;;-60
2021/06/23 15:46:07;;;;;;;3.18;2.65;;;;;;;22.49;67.97;100386.09;;;;-60
2021/06/23 15:49:06;;;;;;;3.11;2.81;;;;;;;22.49;68.07;100380.04;;;;-61
2021/06/23 15:52:06;;;;;;;3.74;2.74;;;;;;;22.48;68.04;100375.89;;;;-56
2021/06/23 15:55:06;;;;;;;4.40;2.86;;;;;;;22.49;68.02;100382.73;;;;-51
2021/06/23 15:58:06;;;;;;;4.63;2.79;;;;;;;22.47;68.06;100380.70;;;;-50
2021/06/23 16:01:06;;;;;;;5.21;2.75;;;;;;;22.47;68.12;100379.41;;;;-51
2021/06/23 16:04:06;;;;;;;4.07;2.81;;;;;;;22.47;68.03;100381.54;;;;-50
2021/06/23 16:07:06;;;;;;;5.49;2.71;;;;;;;22.46;68.02;100378.86;;;;-50
2021/06/23 16:10:06;;;;;;;7.57;2.83;;;;;;;22.44;68.00;100363.34;;;;-50
2021/06/23 16:13:06;;;;;;;6.52;2.89;;;;;;;22.46;68.02;100364.73;;;;-44
2021/06/23 16:16:06;;;;;;;5.35;2.71;;;;;;;22.47;68.17;100375.66;;;;-53
2021/06/23 16:19:06;;;;;;;3.61;2.60;;;;;;;22.48;68.13;100367.65;;;;-50
2021/06/23 16:22:08;;;;;;;3.65;2.89;;;;;;;22.49;68.18;100361.20;;;;-50
2021/06/23 16:25:06;;;;;;;6.08;3.00;;;;;;;22.50;68.16;100362.64;;;;-49
2021/06/23 16:28:06;;;;;;;3.98;2.80;;;;;;;22.51;68.22;100369.25;;;;-50
2021/06/23 16:31:06;;;;;;;4.21;2.75;;;;;;;22.51;68.20;100372.52;;;;-51
2021/06/23 16:34:06;;;;;;;3.93;3.00;;;;;;;22.52;68.20;100376.36;;;;-55
2021/06/23 16:37:06;;;;;;;3.87;2.70;;;;;;;22.53;68.18;100375.05;;;;-49
2021/06/23 16:40:06;;;;;;;3.57;2.73;;;;;;;22.53;68.17;100378.63;;;;-50
2021/06/23 16:43:06;;;;;;;7.11;2.89;;;;;;;22.55;67.91;100385.16;;;;-59
2021/06/23 16:46:06;;;;;;;3.44;2.75;;;;;;;22.54;67.99;100389.74;;;;-57
2021/06/23 16:49:06;;;;;;;4.47;2.69;;;;;;;22.53;68.04;100398.23;;;;-58
2021/06/23 16:52:06;;;;;;;4.78;2.77;;;;;;;22.51;67.95;100394.97;;;;-58